| time (UTC) | temp C | wind direction | speed KPH | gust KPH | rain 1hr cm | rain 24hr cm | rain mn cm | humidity % | barometer mb |
| 20260905051304 | -17 | 215 | 0.0 | 3.2 | 0.00 | 0.00 | 0.00 | 1017.5 | |
| 20260905050801 | -17 | 178 | 3.2 | 4.8 | 0.00 | 0.00 | 0.00 | 1017.5 | |
| 20260905050257 | -17 | 180 | 1.6 | 3.2 | 0.00 | 0.00 | 0.00 | 1017.5 | |
| 20260905045751 | -17 | 162 | 0.0 | 3.2 | 0.00 | 0.03 | 0.03 | 1017.5 | |
| 20260905045247 | -17 | 174 | 1.6 | 4.8 | 0.00 | 0.03 | 0.03 | 1017.3 | |
| 20260905044742 | -17 | 193 | 1.6 | 4.8 | 0.00 | 0.03 | 0.03 | 1017.2 | |
| 20260905044237 | -17 | 181 | 1.6 | 4.8 | 0.00 | 0.03 | 0.03 | 1017.4 | |
| 20260905043735 | -17 | 200 | 1.6 | 3.2 | 0.00 | 0.03 | 0.03 | 1017.4 | |
| 20260905043236 | -17 | 152 | 3.2 | 4.8 | 0.00 | 0.03 | 0.03 | 1017.4 | |
| 20260905042731 | -17 | 158 | 1.6 | 4.8 | 0.00 | 0.03 | 0.03 | 1017.2 | |
| 20260905042230 | -17 | 206 | 0.0 | 1.6 | 0.00 | 0.03 | 0.03 | 1017.2 | |
| 20260905041726 | -17 | 206 | 0.0 | 4.8 | 0.00 | 0.03 | 0.03 | 1017.2 | |
| 20260905041221 | -17 | 189 | 1.6 | 4.8 | 0.00 | 0.03 | 0.03 | 1017.2 | |
| 20260905040716 | -17 | 134 | 0.0 | 4.8 | 0.00 | 0.03 | 0.03 | 1017.2 | |
| 20260905040215 | -17 | 184 | 1.6 | 3.2 | 0.00 | 0.03 | 0.03 | 1017.3 | |
| 20260905035709 | -17 | 215 | 1.6 | 3.2 | 0.00 | 0.03 | 0.03 | 1017.3 | |
| 20260905035206 | -17 | 138 | 3.2 | 4.8 | 0.00 | 0.03 | 0.03 | 1017.2 | |
| 20260905034702 | -17 | 230 | 0.0 | 0.0 | 0.00 | 0.03 | 0.03 | 1017.2 | |
| 20260905034201 | -17 | 214 | 0.0 | 3.2 | 0.00 | 0.03 | 0.03 | 1017.1 | |
| 20260905033700 | -17 | 164 | 0.0 | 3.2 | 0.00 | 0.03 | 0.03 | 1017.2 | |
| 20260905033156 | -17 | 176 | 1.6 | 3.2 | 0.00 | 0.03 | 0.03 | 1017.1 | |
| 20260905032656 | -17 | 141 | 0.0 | 3.2 | 0.00 | 0.03 | 0.03 | 1017.1 | |
| 20260905032156 | -17 | 141 | 4.8 | 6.4 | 0.00 | 0.03 | 0.03 | 1017.1 | |
| 20260905031652 | -17 | 173 | 0.0 | 1.6 | 0.00 | 0.03 | 0.03 | 1017.1 | |
| 20260905031147 | -17 | 173 | 0.0 | 1.6 | 0.00 | 0.03 | 0.03 | 1017.1 | |
| 20260905030642 | -17 | 178 | 1.6 | 4.8 | 0.00 | 0.03 | 0.03 | 1017.0 | |
| 20260905030137 | -17 | 229 | 0.0 | 0.0 | 0.00 | 0.03 | 0.03 | 1016.8 | |
| 20260905025632 | -17 | 185 | 0.0 | 3.2 | 0.00 | 0.03 | 0.03 | 1016.8 | |
| 20260905025128 | -17 | 167 | 1.6 | 3.2 | 0.00 | 0.03 | 0.03 | 1016.9 | |
| 20260905024623 | -17 | 186 | 1.6 | 4.8 | 0.00 | 0.03 | 0.03 | 1016.9 | |
| 20260905024119 | -17 | 218 | 0.0 | 4.8 | 0.00 | 0.03 | 0.03 | 1016.8 | |
| 20260905023614 | -17 | 148 | 1.6 | 8.0 | 0.00 | 0.03 | 0.03 | 1016.8 | |
| 20260905023108 | -17 | 161 | 1.6 | 6.4 | 0.00 | 0.03 | 0.03 | 1016.5 | |
| 20260905022607 | -17 | 143 | 1.6 | 4.8 | 0.00 | 0.03 | 0.03 | 1016.5 | |
| 20260905022103 | -17 | 164 | 1.6 | 3.2 | 0.00 | 0.03 | 0.03 | 1016.5 | |
| 20260905021602 | -17 | 188 | 1.6 | 8.0 | 0.00 | 0.03 | 0.03 | 1016.5 | |
| 20260905021058 | -17 | 187 | 3.2 | 8.0 | 0.00 | 0.03 | 0.03 | 1016.5 | |
| 20260905020557 | -17 | 192 | 3.2 | 8.0 | 0.00 | 0.03 | 0.03 | 1016.5 | |
| 20260905020053 | -17 | 220 | 3.2 | 4.8 | 0.00 | 0.03 | 0.03 | 1016.3 | |
| 20260905015550 | -17 | 166 | 3.2 | 6.4 | 0.00 | 0.03 | 0.03 | 1016.2 | |
| 20260905015045 | -17 | 173 | 3.2 | 4.8 | 0.00 | 0.03 | 0.03 | 1016.3 | |
| 20260905014540 | -17 | 180 | 3.2 | 4.8 | 0.00 | 0.03 | 0.03 | 1016.0 | |
| 20260905014036 | -17 | 169 | 1.6 | 4.8 | 0.00 | 0.03 | 0.03 | 1016.1 | |
| 20260905013532 | -17 | 199 | 4.8 | 8.0 | 0.00 | 0.03 | 0.03 | 1015.8 | |
| 20260905013028 | -17 | 174 | 3.2 | 4.8 | 0.00 | 0.03 | 0.03 | 1016.1 | |
| 20260905012521 | -17 | 246 | 0.0 | 3.2 | 0.00 | 0.03 | 0.03 | 1015.8 | |
| 20260905012019 | -17 | 142 | 3.2 | 3.2 | 0.00 | 0.03 | 0.03 | 1015.8 | |
| 20260905011515 | -17 | 142 | 3.2 | 3.2 | 0.00 | 0.03 | 0.03 | 1015.7 | |
| 20260905011010 | -17 | 183 | 3.2 | 4.8 | 0.00 | 0.03 | 0.03 | 1015.8 | |
| 20260905010509 | -17 | 128 | 4.8 | 11.3 | 0.00 | 0.03 | 0.03 | 1015.8 | |
| 20260905010006 | -17 | 176 | 1.6 | 3.2 | 0.00 | 0.03 | 0.03 | 1015.6 | |
| 20260905005501 | -17 | 176 | 1.6 | 3.2 | 0.00 | 0.03 | 0.03 | 1015.6 | |
| 20260905004956 | -17 | 187 | 0.0 | 3.2 | 0.00 | 0.03 | 0.03 | 1015.6 | |
| 20260905004451 | -17 | 179 | 3.2 | 3.2 | 0.00 | 0.03 | 0.03 | 1015.7 | |
| 20260905003946 | -17 | 196 | 3.2 | 4.8 | 0.00 | 0.03 | 0.03 | 1015.4 | |
| 20260905003442 | -17 | 174 | 4.8 | 12.9 | 0.00 | 0.03 | 0.03 | 1015.5 | |
| 20260905002937 | -17 | 162 | 1.6 | 6.4 | 0.00 | 0.03 | 0.03 | 1015.3 | |
| 20260905002432 | -17 | 197 | 3.2 | 4.8 | 0.00 | 0.03 | 0.03 | 1015.2 | |
| 20260905001931 | -17 | 197 | 3.2 | 4.8 | 0.00 | 0.03 | 0.03 | 1015.2 | |
| 20260905001427 | -17 | 197 | 3.2 | 4.8 | 0.00 | 0.03 | 0.03 | 1015.1 | |
| 20260905000921 | -17 | 197 | 3.2 | 4.8 | 0.00 | 0.03 | 0.03 | 1015.1 | |
| 20260905000417 | -17 | 197 | 3.2 | 4.8 | 0.00 | 0.03 | 0.03 | 1015.0 | |
| 20260904235912 | -17 | 158 | 4.8 | 9.7 | 0.00 | 0.03 | 0.03 | 1015.0 | |
| 20260904235408 | -17 | 158 | 4.8 | 9.7 | 0.00 | 0.03 | 0.03 | 1015.0 | |
| 20260904234902 | -17 | 172 | 3.2 | 8.0 | 0.00 | 0.03 | 0.03 | 1014.9 | |
| 20260904234356 | -17 | 217 | 3.2 | 8.0 | 0.00 | 0.03 | 0.03 | 1015.1 | |
| 20260904233852 | -17 | 217 | 3.2 | 8.0 | 0.00 | 0.03 | 0.03 | 1015.1 | |
| 20260904233348 | -17 | 217 | 3.2 | 8.0 | 0.00 | 0.03 | 0.03 | 1015.0 | |
| 20260904232844 | -17 | 158 | 3.2 | 11.3 | 0.00 | 0.03 | 0.03 | 1015.0 | |
| 20260904232341 | -17 | 173 | 3.2 | 11.3 | 0.00 | 0.03 | 0.03 | 1015.1 | |
| 20260904231836 | -17 | 173 | 3.2 | 11.3 | 0.00 | 0.03 | 0.03 | 1015.0 | |
| 20260904231331 | -17 | 173 | 3.2 | 11.3 | 0.00 | 0.03 | 0.03 | 1015.0 | |
| 20260904230826 | -17 | 188 | 6.4 | 19.3 | 0.00 | 0.03 | 0.03 | 1014.9 | |
| 20260904230325 | -17 | 247 | 3.2 | 4.8 | 0.00 | 0.03 | 0.03 | 1014.8 | |
| 20260904225820 | -17 | 209 | 1.6 | 3.2 | 0.00 | 0.03 | 0.03 | 1014.9 | |
| 20260904225318 | -17 | 209 | 1.6 | 3.2 | 0.00 | 0.03 | 0.03 | 1014.7 | |
| 20260904224818 | -17 | 209 | 1.6 | 3.2 | 0.00 | 0.03 | 0.03 | 1014.7 | |
| 20260904224314 | -17 | 209 | 1.6 | 3.2 | 0.00 | 0.03 | 0.03 | 1014.9 | |
| 20260904223812 | -17 | 183 | 8.0 | 11.3 | 0.00 | 0.03 | 0.03 | 1014.8 | |
| 20260904223307 | -17 | 183 | 8.0 | 11.3 | 0.00 | 0.03 | 0.03 | 1014.8 | |
| 20260904222804 | -17 | 198 | 3.2 | 4.8 | 0.00 | 0.03 | 0.03 | 1015.1 | |
| 20260904222259 | -17 | 198 | 3.2 | 4.8 | 0.00 | 0.03 | 0.03 | 1014.8 | |
| 20260904221753 | -17 | 198 | 3.2 | 4.8 | 0.00 | 0.03 | 0.03 | 1014.9 | |
| 20260904221247 | -17 | 167 | 3.2 | 6.4 | 0.00 | 0.03 | 0.03 | 1014.9 | |
| 20260904220743 | -17 | 144 | 8.0 | 11.3 | 0.00 | 0.03 | 0.03 | 1014.9 | |
| 20260904220242 | -17 | 144 | 8.0 | 11.3 | 0.00 | 0.03 | 0.03 | 1014.8 | |
| 20260904215737 | -17 | 144 | 8.0 | 11.3 | 0.00 | 0.03 | 0.03 | 1014.8 | |
| 20260904215233 | -17 | 144 | 8.0 | 11.3 | 0.00 | 0.03 | 0.03 | 1015.2 | |
| 20260904214727 | -17 | 144 | 8.0 | 11.3 | 0.00 | 0.03 | 0.03 | 1015.2 | |
| 20260904214218 | -17 | 215 | 4.8 | 4.8 | 0.00 | 0.03 | 0.03 | 1015.3 | |
| 20260904213716 | -17 | 215 | 4.8 | 4.8 | 0.00 | 0.03 | 0.03 | 1015.3 | |
| 20260904213213 | -17 | 227 | 3.2 | 8.0 | 0.00 | 0.03 | 0.03 | 1015.5 | |
| 20260904212713 | -17 | 227 | 3.2 | 8.0 | 0.00 | 0.03 | 0.03 | 1015.5 | |
| 20260904212208 | -17 | 227 | 3.2 | 8.0 | 0.00 | 0.03 | 0.03 | 1015.6 | |
| 20260904211707 | -17 | 227 | 3.2 | 8.0 | 0.00 | 0.03 | 0.03 | 1015.7 | |
| 20260904211203 | -17 | 227 | 3.2 | 8.0 | 0.00 | 0.03 | 0.03 | 1015.5 | |
| 20260904210657 | -17 | 235 | 4.8 | 6.4 | 0.00 | 0.03 | 0.03 | 1015.7 | |
| 20260904210152 | -17 | 235 | 4.8 | 6.4 | 0.00 | 0.03 | 0.03 | 1015.8 | |
| 20260904205648 | -17 | 209 | 4.8 | 8.0 | 0.00 | 0.03 | 0.03 | 1015.8 | |
| 20260904205144 | -17 | 157 | 4.8 | 8.0 | 0.00 | 0.03 | 0.03 | 1015.8 | |
| 20260904204640 | -17 | 227 | 4.8 | 6.4 | 0.00 | 0.03 | 0.03 | 1015.7 | |
| 20260904204136 | -17 | 224 | 4.8 | 6.4 | 0.00 | 0.03 | 0.03 | 1015.9 | |
| 20260904203632 | -17 | 167 | 6.4 | 9.7 | 0.00 | 0.03 | 0.03 | 1015.9 | |
| 20260904203128 | -17 | 212 | 4.8 | 6.4 | 0.00 | 0.03 | 0.03 | 1016.1 | |
| 20260904202624 | -17 | 212 | 4.8 | 6.4 | 0.00 | 0.03 | 0.03 | 1016.1 | |
| 20260904202120 | -17 | 212 | 4.8 | 6.4 | 0.00 | 0.03 | 0.03 | 1016.2 | |
| 20260904201620 | -17 | 212 | 4.8 | 8.0 | 0.00 | 0.03 | 0.03 | 1016.2 | |
| 20260904201115 | -17 | 152 | 6.4 | 12.9 | 0.00 | 0.03 | 0.03 | 1016.2 | |
| 20260904200609 | -17 | 229 | 4.8 | 8.0 | 0.00 | 0.03 | 0.03 | 1016.6 | |
| 20260904200104 | -17 | 227 | 4.8 | 4.8 | 0.00 | 0.03 | 0.03 | 1016.4 | |
| 20260904195603 | -17 | 213 | 4.8 | 6.4 | 0.00 | 0.03 | 0.03 | 1016.4 | |
| 20260904195101 | -17 | 235 | 4.8 | 6.4 | 0.00 | 0.03 | 0.03 | 1016.5 | |
| 20260904194556 | -17 | 212 | 3.2 | 6.4 | 0.00 | 0.03 | 0.03 | 1016.5 | |
| 20260904194051 | -17 | 212 | 3.2 | 6.4 | 0.00 | 0.03 | 0.03 | 1016.6 | |
| 20260904193546 | -17 | 236 | 3.2 | 8.0 | 0.00 | 0.03 | 0.03 | 1016.8 | |
| 20260904193043 | -17 | 260 | 3.2 | 4.8 | 0.00 | 0.03 | 0.03 | 1016.8 | |
| 20260904192542 | -17 | 160 | 8.0 | 9.7 | 0.00 | 0.03 | 0.03 | 1016.8 | |
| 20260904192038 | -17 | 221 | 3.2 | 4.8 | 0.00 | 0.03 | 0.03 | 1016.8 | |
| 20260904191535 | -17 | 214 | 3.2 | 3.2 | 0.00 | 0.03 | 0.03 | 1016.8 | |
| 20260904191031 | -17 | 208 | 3.2 | 4.8 | 0.00 | 0.03 | 0.03 | 1017.0 | |
| 20260904190526 | -17 | 185 | 6.4 | 9.7 | 0.00 | 0.03 | 0.03 | 1017.3 | |
| 20260904190022 | -17 | 191 | 4.8 | 9.7 | 0.00 | 0.03 | 0.03 | 1017.2 | |
| 20260904185518 | -17 | 177 | 6.4 | 8.0 | 0.00 | 0.03 | 0.03 | 1017.2 | |
| 20260904185012 | -17 | 177 | 6.4 | 8.0 | 0.00 | 0.03 | 0.03 | 1017.3 | |
| 20260904184507 | -17 | 157 | 6.4 | 9.7 | 0.00 | 0.03 | 0.03 | 1017.5 | |
| 20260904184002 | -17 | 157 | 6.4 | 9.7 | 0.00 | 0.03 | 0.03 | 1017.3 | |
| 20260904183457 | -17 | 190 | 4.8 | 8.0 | 0.00 | 0.03 | 0.03 | 1017.4 | |
| 20260904182952 | -17 | 224 | 3.2 | 4.8 | 0.00 | 0.03 | 0.03 | 1017.3 | |
| 20260904182448 | -17 | 224 | 3.2 | 4.8 | 0.00 | 0.03 | 0.03 | 1017.4 | |
| 20260904181947 | -17 | 211 | 3.2 | 6.4 | 0.00 | 0.03 | 0.03 | 1017.5 | |
| 20260904181443 | -17 | 211 | 3.2 | 6.4 | 0.00 | 0.03 | 0.03 | 1017.5 | |
| 20260904180938 | -17 | 158 | 3.2 | 6.4 | 0.00 | 0.03 | 0.03 | 1017.5 | |
| 20260904180433 | -17 | 211 | 3.2 | 4.8 | 0.00 | 0.03 | 0.03 | 1017.8 | |
| 20260904175932 | -17 | 209 | 3.2 | 4.8 | 0.00 | 0.03 | 0.03 | 1017.9 | |
| 20260904175432 | -17 | 146 | 9.7 | 9.7 | 0.00 | 0.03 | 0.03 | 1018.0 | |
| 20260904174926 | -17 | 260 | 0.0 | 3.2 | 0.00 | 0.03 | 0.03 | 1017.9 | |
| 20260904174421 | -17 | 260 | 0.0 | 3.2 | 0.00 | 0.03 | 0.03 | 1018.1 | |
| 20260904173918 | -17 | 42 | 0.0 | 4.8 | 0.00 | 0.03 | 0.03 | 1018.1 | |
| 20260904173413 | -17 | 196 | 3.2 | 4.8 | 0.00 | 0.03 | 0.03 | 1018.1 | |
| 20260904172908 | -17 | 177 | 3.2 | 3.2 | 0.00 | 0.03 | 0.03 | 1018.1 | |
| 20260904172402 | -17 | 136 | 6.4 | 11.3 | 0.00 | 0.03 | 0.03 | 1018.2 | |
| 20260904171857 | -17 | 178 | 4.8 | 11.3 | 0.00 | 0.03 | 0.03 | 1018.1 | |
| 20260904171352 | -17 | 208 | 1.6 | 3.2 | 0.00 | 0.03 | 0.03 | 1018.3 | |
| 20260904170849 | -17 | 162 | 8.0 | 8.0 | 0.00 | 0.03 | 0.03 | 1018.3 | |
| 20260904170344 | -17 | 162 | 8.0 | 8.0 | 0.00 | 0.03 | 0.03 | 1018.3 | |
| 20260904165838 | -17 | 273 | 3.2 | 4.8 | 0.00 | 0.03 | 0.03 | 1018.3 | |
| 20260904165337 | -17 | 218 | 4.8 | 11.3 | 0.00 | 0.03 | 0.03 | 1018.2 | |
| 20260904164827 | -17 | 190 | 3.2 | 11.3 | 0.00 | 0.03 | 0.03 | 1018.2 | |
| 20260904164326 | -17 | 141 | 6.4 | 8.0 | 0.00 | 0.03 | 0.03 | 1018.2 | |
| 20260904163824 | -17 | 182 | 6.4 | 9.7 | 0.00 | 0.03 | 0.03 | 1018.2 | |
| 20260904163323 | -17 | 204 | 3.2 | 8.0 | 0.00 | 0.03 | 0.03 | 1018.2 | |
| 20260904162822 | -17 | 208 | 3.2 | 4.8 | 0.00 | 0.03 | 0.03 | 1018.2 | |
| 20260904162318 | -17 | 208 | 3.2 | 4.8 | 0.00 | 0.03 | 0.03 | 1018.2 | |
| 20260904161814 | -17 | 212 | 3.2 | 4.8 | 0.00 | 0.03 | 0.03 | 1018.2 | |
| 20260904161314 | -17 | 212 | 3.2 | 4.8 | 0.00 | 0.03 | 0.03 | 1018.3 | |
| 20260904160809 | -17 | 227 | 3.2 | 4.8 | 0.00 | 0.03 | 0.03 | 1018.1 | |
| 20260904160304 | -17 | 227 | 3.2 | 4.8 | 0.00 | 0.03 | 0.03 | 1018.1 | |
| 20260904155758 | -17 | 227 | 3.2 | 4.8 | 0.00 | 0.03 | 0.03 | 1018.2 | |
| 20260904155259 | -17 | 227 | 3.2 | 4.8 | 0.00 | 0.03 | 0.03 | 1018.2 | |
| 20260904154757 | -17 | 227 | 3.2 | 4.8 | 0.00 | 0.03 | 0.03 | 1018.2 | |
| 20260904154252 | -17 | 227 | 3.2 | 4.8 | 0.00 | 0.03 | 0.03 | 1018.2 | |
| 20260904153748 | -17 | 221 | 3.2 | 6.4 | 0.00 | 0.03 | 0.03 | 1018.1 | |
| 20260904153243 | -17 | 236 | 3.2 | 4.8 | 0.00 | 0.03 | 0.03 | 1018.2 | |
| 20260904152739 | -17 | 200 | 4.8 | 6.4 | 0.00 | 0.03 | 0.03 | 1018.3 | |
| 20260904152234 | -17 | 200 | 4.8 | 6.4 | 0.00 | 0.03 | 0.03 | 1018.0 | |
| 20260904151729 | -17 | 200 | 4.8 | 6.4 | 0.00 | 0.03 | 0.03 | 1018.1 | |
| 20260904151228 | -17 | 238 | 4.8 | 6.4 | 0.13 | 0.03 | 0.03 | 1018.0 | |
| 20260904150724 | -17 | 245 | 3.2 | 4.8 | 0.13 | 0.03 | 0.03 | 1017.9 | |
| 20260904150219 | -17 | 247 | 3.2 | 6.4 | 0.00 | 0.00 | 0.00 | 1017.9 | |
| 20260904145717 | -17 | 247 | 3.2 | 6.4 | 0.00 | 0.00 | 0.00 | 1018.0 | |
| 20260904145213 | -17 | 247 | 3.2 | 6.4 | 0.00 | 0.00 | 0.00 | 1018.0 | |
| 20260904144708 | -17 | 247 | 3.2 | 6.4 | 0.00 | 0.00 | 0.00 | 1018.0 | |
| 20260904144204 | -17 | 216 | 4.8 | 4.8 | 0.00 | 0.00 | 0.00 | 1018.2 | |
| 20260904143659 | -17 | 216 | 4.8 | 4.8 | 0.00 | 0.00 | 0.00 | 1017.9 | |
| 20260904143156 | -17 | 216 | 4.8 | 4.8 | 0.00 | 0.00 | 0.00 | 1018.0 | |
| 20260904142652 | -17 | 216 | 4.8 | 4.8 | 0.00 | 0.00 | 0.00 | 1017.9 | |
| 20260904142148 | -17 | 216 | 4.8 | 4.8 | 0.00 | 0.00 | 0.00 | 1018.1 | |
| 20260904141642 | -17 | 224 | 1.6 | 3.2 | 0.00 | 0.00 | 0.00 | 1017.9 | |
| 20260904141138 | -17 | 224 | 1.6 | 3.2 | 0.00 | 0.00 | 0.00 | 1017.9 | |
| 20260904140633 | -17 | 224 | 1.6 | 3.2 | 0.00 | 0.00 | 0.00 | 1017.6 | |
| 20260904140127 | -17 | 224 | 1.6 | 3.2 | 0.00 | 0.00 | 0.00 | 1017.9 | |
| 20260904135621 | -17 | 225 | 4.8 | 6.4 | 0.00 | 0.00 | 0.00 | 1017.9 | |
| 20260904135117 | -17 | 225 | 4.8 | 6.4 | 0.00 | 0.00 | 0.00 | 1018.0 | |
| 20260904134613 | -17 | 255 | 3.2 | 4.8 | 0.00 | 0.00 | 0.00 | 1018.0 | |
| 20260904134112 | -17 | 255 | 3.2 | 4.8 | 0.00 | 0.00 | 0.00 | 1017.6 | |
| 20260904133607 | -17 | 249 | 0.0 | 1.6 | 0.00 | 0.00 | 0.00 | 1017.5 | |
| 20260904133103 | -17 | 220 | 3.2 | 4.8 | 0.00 | 0.00 | 0.00 | 1017.6 | |
| 20260904132602 | -17 | 231 | 1.6 | 3.2 | 0.00 | 0.00 | 0.00 | 1017.3 | |
| 20260904132057 | -17 | 231 | 1.6 | 3.2 | 0.00 | 0.00 | 0.00 | 1017.5 | |
| 20260904131551 | -17 | 231 | 1.6 | 3.2 | 0.00 | 0.00 | 0.00 | 1017.5 | |
| 20260904131047 | -17 | 231 | 1.6 | 3.2 | 0.00 | 0.00 | 0.00 | 1017.8 | |
| 20260904130546 | -17 | 231 | 3.2 | 3.2 | 0.00 | 0.00 | 0.00 | 1017.6 | |
| 20260904130041 | -17 | 244 | 1.6 | 3.2 | 0.00 | 0.00 | 0.00 | 1017.5 | |
| 20260904125538 | -17 | 230 | 0.0 | 1.6 | 0.00 | 0.00 | 0.00 | 1017.9 | |
| 20260904125032 | -17 | 227 | 1.6 | 1.6 | 0.00 | 0.00 | 0.00 | 1017.8 | |
| 20260904124528 | -17 | 242 | 0.0 | 1.6 | 0.00 | 0.00 | 0.00 | 1017.6 | |
| 20260904124023 | -17 | 253 | 1.6 | 3.2 | 0.00 | 0.00 | 0.00 | 1017.8 | |
| 20260904123523 | -17 | 220 | 0.0 | 1.6 | 0.00 | 0.00 | 0.00 | 1017.9 | |
| 20260904123018 | -17 | 220 | 0.0 | 1.6 | 0.00 | 0.00 | 0.00 | 1017.9 | |
| 20260904122513 | -17 | 236 | 1.6 | 3.2 | 0.00 | 0.00 | 0.00 | 1017.9 | |
| 20260904122008 | -17 | 175 | 3.2 | 3.2 | 0.00 | 0.00 | 0.00 | 1017.8 | |
| 20260904121503 | -17 | 259 | 0.0 | 3.2 | 0.00 | 0.00 | 0.00 | 1017.6 | |
| 20260904120959 | -17 | 187 | 1.6 | 3.2 | 0.00 | 0.00 | 0.00 | 1017.6 | |
| 20260904120455 | -17 | 171 | 3.2 | 3.2 | 0.00 | 0.00 | 0.00 | 1017.4 | |
| 20260904115949 | -17 | 180 | 1.6 | 3.2 | 0.00 | 0.00 | 0.00 | 1017.4 | |
| 20260904115446 | -17 | 170 | 4.8 | 4.8 | 0.00 | 0.00 | 0.00 | 1017.1 | |
| 20260904114945 | -17 | 125 | 4.8 | 6.4 | 0.00 | 0.00 | 0.00 | 1017.2 | |
| 20260904114440 | -17 | 176 | 1.6 | 4.8 | 0.00 | 0.00 | 0.00 | 1017.1 | |
| 20260904113936 | -17 | 202 | 3.2 | 4.8 | 0.00 | 0.00 | 0.00 | 1017.1 | |
| 20260904113434 | -17 | 133 | 0.0 | 4.8 | 0.00 | 0.00 | 0.00 | 1016.9 | |
| 20260904112928 | -17 | 138 | 8.0 | 9.7 | 0.00 | 0.00 | 0.00 | 1016.7 | |
| 20260904112424 | -17 | 147 | 1.6 | 4.8 | 0.00 | 0.00 | 0.00 | 1016.7 | |
| 20260904111920 | -17 | 213 | 0.0 | 3.2 | 0.00 | 0.00 | 0.00 | 1016.6 | |
| 20260904111415 | -17 | 178 | 3.2 | 4.8 | 0.00 | 0.00 | 0.00 | 1016.6 | |
| 20260904110911 | -17 | 106 | 4.8 | 6.4 | 0.00 | 0.00 | 0.00 | 1016.6 | |
| 20260904110409 | -17 | 188 | 1.6 | 3.2 | 0.00 | 0.00 | 0.00 | 1016.6 | |
| 20260904105905 | -17 | 184 | 3.2 | 6.4 | 0.00 | 0.00 | 0.00 | 1016.6 | |
| 20260904105400 | -17 | 165 | 3.2 | 8.0 | 0.00 | 0.00 | 0.00 | 1016.6 | |
| 20260904104855 | -17 | 202 | 0.0 | 1.6 | 0.00 | 0.00 | 0.00 | 1016.4 | |
| 20260904104350 | -17 | 147 | 3.2 | 4.8 | 0.00 | 0.00 | 0.00 | 1016.6 | |
| 20260904103847 | -17 | 207 | 3.2 | 8.0 | 0.00 | 0.00 | 0.00 | 1016.5 | |
| 20260904103347 | -17 | 168 | 1.6 | 6.4 | 0.00 | 0.00 | 0.00 | 1016.4 | |
| 20260904102843 | -17 | 217 | 0.0 | 3.2 | 0.00 | 0.00 | 0.00 | 1016.4 | |
| 20260904102338 | -17 | 269 | 0.0 | 6.4 | 0.00 | 0.00 | 0.00 | 1016.6 | |
| 20260904101834 | -17 | 161 | 3.2 | 4.8 | 0.00 | 0.00 | 0.00 | 1016.4 | |
| 20260904101330 | -17 | 217 | 0.0 | 1.6 | 0.00 | 0.00 | 0.00 | 1016.4 | |
| 20260904100825 | -17 | 209 | 0.0 | 4.8 | 0.00 | 0.00 | 0.00 | 1016.3 | |
| 20260904100321 | -17 | 161 | 4.8 | 11.3 | 0.00 | 0.00 | 0.00 | 1016.3 | |
| 20260904095816 | -17 | 206 | 3.2 | 4.8 | 0.00 | 0.00 | 0.00 | 1016.0 | |
| 20260904095310 | -17 | 214 | 1.6 | 4.8 | 0.00 | 0.00 | 0.00 | 1016.2 | |
| 20260904094806 | -17 | 215 | 1.6 | 6.4 | 0.00 | 0.00 | 0.00 | 1016.0 | |
| 20260904094300 | -17 | 158 | 1.6 | 4.8 | 0.00 | 0.00 | 0.00 | 1016.0 | |
| 20260904093756 | -17 | 197 | 3.2 | 4.8 | 0.00 | 0.00 | 0.00 | 1016.2 | |
| 20260904093251 | -17 | 227 | 3.2 | 4.8 | 0.00 | 0.00 | 0.00 | 1016.2 | |
| 20260904092746 | -17 | 180 | 1.6 | 6.4 | 0.00 | 0.00 | 0.00 | 1016.1 | |
| 20260904092243 | -17 | 192 | 3.2 | 8.0 | 0.00 | 0.00 | 0.00 | 1016.1 | |
| 20260904091739 | -17 | 209 | 0.0 | 4.8 | 0.00 | 0.00 | 0.00 | 1016.1 | |
| 20260904091233 | -17 | 176 | 4.8 | 6.4 | 0.00 | 0.00 | 0.00 | 1016.1 | |
| 20260904090729 | -17 | 220 | 3.2 | 6.4 | 0.00 | 0.00 | 0.00 | 1016.0 | |
| 20260904090225 | -17 | 117 | 3.2 | 4.8 | 0.00 | 0.00 | 0.00 | 1016.1 | |
| 20260904085725 | -17 | 196 | 3.2 | 4.8 | 0.00 | 0.00 | 0.00 | 1016.1 | |
| 20260904085220 | -17 | 238 | 3.2 | 4.8 | 0.00 | 0.00 | 0.00 | 1016.3 | |
| 20260904084714 | -17 | 195 | 4.8 | 6.4 | 0.00 | 0.00 | 0.00 | 1016.3 | |
| 20260904084211 | -17 | 191 | 0.0 | 3.2 | 0.00 | 0.00 | 0.00 | 1016.2 | |
| 20260904083707 | -17 | 190 | 0.0 | 4.8 | 0.00 | 0.00 | 0.00 | 1016.2 | |
| 20260904083204 | -17 | 217 | 3.2 | 4.8 | 0.00 | 0.00 | 0.00 | 1016.2 | |
| 20260904082703 | -17 | 219 | 3.2 | 6.4 | 0.00 | 0.00 | 0.00 | 1016.3 | |
| 20260904082158 | -17 | 187 | 1.6 | 4.8 | 0.00 | 0.00 | 0.00 | 1016.1 | |
| 20260904081654 | -17 | 136 | 3.2 | 6.4 | 0.00 | 0.00 | 0.00 | 1016.5 | |
| 20260904081149 | -17 | 185 | 3.2 | 6.4 | 0.00 | 0.00 | 0.00 | 1016.4 | |
| 20260904080644 | -17 | 188 | 0.0 | 4.8 | 0.00 | 0.00 | 0.00 | 1016.4 | |
| 20260904080140 | -17 | 201 | 3.2 | 6.4 | 0.00 | 0.00 | 0.00 | 1016.3 | |
| 20260904075637 | -17 | 240 | 3.2 | 9.7 | 0.00 | 0.00 | 0.00 | 1016.0 | |
| 20260904075131 | -17 | 217 | 4.8 | 4.8 | 0.00 | 0.00 | 0.00 | 1016.0 | |
| 20260904074625 | -17 | 218 | 3.2 | 14.5 | 0.00 | 0.00 | 0.00 | 1016.1 | |
| 20260904074120 | -17 | 226 | 1.6 | 12.9 | 0.00 | 0.00 | 0.00 | 1016.2 | |
| 20260904073614 | -17 | 219 | 4.8 | 8.0 | 0.00 | 0.00 | 0.00 | 1016.3 | |
| 20260904073111 | -17 | 203 | 4.8 | 11.3 | 0.00 | 0.00 | 0.00 | 1016.2 | |
| 20260904072606 | -17 | 167 | 0.0 | 4.8 | 0.00 | 0.00 | 0.00 | 1016.2 | |
| 20260904072101 | -17 | 158 | 3.2 | 4.8 | 0.00 | 0.00 | 0.00 | 1016.3 | |
| 20260904071557 | -17 | 214 | 0.0 | 8.0 | 0.00 | 0.00 | 0.00 | 1016.5 | |
| 20260904071052 | -17 | 220 | 3.2 | 4.8 | 0.00 | 0.00 | 0.00 | 1016.5 | |
| 20260904070550 | -17 | 148 | 8.0 | 8.0 | 0.00 | 0.00 | 0.00 | 1016.5 | |
| 20260904070046 | -17 | 215 | 4.8 | 9.7 | 0.00 | 0.00 | 0.00 | 1016.4 | |
| 20260904065540 | -17 | 191 | 3.2 | 4.8 | 0.00 | 0.00 | 0.00 | 1016.7 | |
| 20260904065037 | -17 | 139 | 4.8 | 8.0 | 0.00 | 0.00 | 0.00 | 1016.5 | |
| 20260904064533 | -17 | 208 | 4.8 | 9.7 | 0.00 | 0.00 | 0.00 | 1016.5 | |
| 20260904064026 | -17 | 176 | 3.2 | 6.4 | 0.00 | 0.00 | 0.00 | 1016.6 | |
| 20260904063523 | -17 | 207 | 3.2 | 6.4 | 0.00 | 0.00 | 0.00 | 1016.7 | |
| 20260904063018 | -17 | 163 | 4.8 | 8.0 | 0.00 | 0.00 | 0.00 | 1016.4 | |
| 20260904062514 | -17 | 219 | 3.2 | 4.8 | 0.00 | 0.00 | 0.00 | 1016.5 | |
| 20260904062010 | -17 | 191 | 1.6 | 9.7 | 0.00 | 0.00 | 0.00 | 1016.5 | |
| 20260904061505 | -17 | 235 | 1.6 | 4.8 | 0.00 | 0.00 | 0.00 | 1016.5 | |
| 20260904061002 | -17 | 226 | 1.6 | 4.8 | 0.00 | 0.00 | 0.00 | 1016.5 | |
| 20260904060457 | -17 | 210 | 3.2 | 3.2 | 0.00 | 0.00 | 0.00 | 1016.6 | |
| 20260904055953 | -17 | 140 | 6.4 | 11.3 | 0.00 | 0.00 | 0.00 | 1016.4 | |
| 20260904055448 | -17 | 196 | 1.6 | 9.7 | 0.00 | 0.00 | 0.00 | 1016.4 | |
| 20260904054944 | -17 | 262 | 3.2 | 8.0 | 0.00 | 0.00 | 0.00 | 1016.4 | |
| 20260904054439 | -17 | 224 | 0.0 | 4.8 | 0.00 | 0.00 | 0.00 | 1016.4 | |
| 20260904053935 | -17 | 218 | 1.6 | 4.8 | 0.00 | 0.00 | 0.00 | 1016.4 | |
| 20260904053434 | -17 | 279 | 3.2 | 8.0 | 0.00 | 0.00 | 0.00 | 1016.4 | |
| 20260904052930 | -17 | 205 | 6.4 | 12.9 | 0.00 | 0.00 | 0.00 | 1016.6 | |
| 20260904052426 | -17 | 137 | 3.2 | 8.0 | 0.00 | 0.00 | 0.00 | 1016.3 | |
| 20260904051922 | -17 | 189 | 3.2 | 12.9 | 0.00 | 0.00 | 0.00 | 1016.4 | |
| 20260904051418 | -17 | 160 | 3.2 | 11.3 | 0.00 | 0.00 | 0.00 | 1016.3 |